createdAt,value
2023-01-08T00:00:26.526Z,6.70
2023-01-08T00:03:15.355Z,6.60
2023-01-08T00:06:04.555Z,6.60
2023-01-08T00:08:52.679Z,6.50
2023-01-08T00:11:40.977Z,6.60
2023-01-08T00:14:29.107Z,6.50
2023-01-08T00:17:18.591Z,6.60
2023-01-08T00:20:07.936Z,6.50
2023-01-08T00:22:56.072Z,6.60
2023-01-08T00:25:44.223Z,6.60
2023-01-08T00:28:32.980Z,6.70
2023-01-08T00:31:21.161Z,6.70
2023-01-08T00:34:10.710Z,6.70
2023-01-08T00:36:58.839Z,6.80
2023-01-08T00:39:47.246Z,6.80
2023-01-08T00:42:35.350Z,6.90
2023-01-08T00:45:23.448Z,7.00
2023-01-08T00:48:12.187Z,7.00
2023-01-08T00:51:03.980Z,7.00
2023-01-08T00:53:52.091Z,7.00
2023-01-08T00:56:40.175Z,7.10
2023-01-08T00:59:28.294Z,7.10
2023-01-08T01:02:16.796Z,7.00
2023-01-08T01:05:05.984Z,7.00
2023-01-08T01:07:55.521Z,7.10
2023-01-08T01:10:43.694Z,7.20
2023-01-08T01:13:31.774Z,7.20
2023-01-08T01:16:20.062Z,7.20
2023-01-08T01:19:09.196Z,7.20
2023-01-08T01:21:57.412Z,7.20
2023-01-08T01:24:46.898Z,7.20
2023-01-08T01:27:35.024Z,7.10
2023-01-08T01:30:23.200Z,7.10
2023-01-08T01:33:11.316Z,7.10
2023-01-08T01:36:03.790Z,7.10
2023-01-08T01:38:54.192Z,7.10
2023-01-08T01:41:45.756Z,7.10
2023-01-08T01:44:38.625Z,7.10
2023-01-08T01:47:30.834Z,7.00
2023-01-08T01:50:23.482Z,7.00
2023-01-08T01:53:13.691Z,7.10
2023-01-08T01:56:03.659Z,7.00
2023-01-08T01:58:53.112Z,7.00
2023-01-08T02:01:42.476Z,7.00
2023-01-08T02:04:30.695Z,7.00
2023-01-08T02:07:25.585Z,7.10
2023-01-08T02:10:18.171Z,7.10
2023-01-08T02:13:09.880Z,7.10
2023-01-08T02:16:04.087Z,7.10
2023-01-08T02:18:58.793Z,7.00
2023-01-08T02:22:02.758Z,7.00
2023-01-08T02:24:57.391Z,7.00
2023-01-08T02:27:50.077Z,6.90
2023-01-08T02:30:38.418Z,7.00
2023-01-08T02:33:36.670Z,7.00
2023-01-08T02:36:31.228Z,7.00
2023-01-08T02:39:41.702Z,7.00
2023-01-08T02:42:37.537Z,7.00
2023-01-08T02:45:39.967Z,7.00
2023-01-08T02:48:37.527Z,7.00
2023-01-08T02:51:32.042Z,7.00
2023-01-08T02:54:24.487Z,7.10
2023-01-08T02:57:15.908Z,7.10
2023-01-08T03:00:04.912Z,7.10
2023-01-08T03:03:02.928Z,7.10
2023-01-08T03:05:55.293Z,7.20
2023-01-08T03:08:46.615Z,7.20
2023-01-08T03:11:39.087Z,7.20
2023-01-08T03:14:32.096Z,7.20
2023-01-08T03:17:23.347Z,7.20
2023-01-08T03:20:16.669Z,7.20
2023-01-08T03:23:08.887Z,7.20
2023-01-08T03:25:58.879Z,7.20
2023-01-08T03:28:50.868Z,7.30
2023-01-08T03:31:41.414Z,7.30
2023-01-08T03:34:32.806Z,7.40
2023-01-08T03:37:27.553Z,7.40
2023-01-08T03:40:21.573Z,7.40
2023-01-08T03:43:10.041Z,7.40
2023-01-08T03:46:01.066Z,7.40
2023-01-08T03:48:50.357Z,7.40
2023-01-08T03:51:42.660Z,7.40
2023-01-08T03:54:34.633Z,7.40
2023-01-08T03:57:22.935Z,7.40
2023-01-08T04:00:12.454Z,7.40
2023-01-08T04:03:00.623Z,7.50
2023-01-08T04:05:48.707Z,7.50
2023-01-08T04:08:36.817Z,7.60
2023-01-08T04:11:26.507Z,7.70
2023-01-08T04:14:14.647Z,7.70
2023-01-08T04:17:02.745Z,7.80
2023-01-08T04:19:50.874Z,7.80
2023-01-08T04:22:39.300Z,7.90
2023-01-08T04:25:27.407Z,7.90
2023-01-08T04:28:16.866Z,7.90
2023-01-08T04:31:07.209Z,7.90
2023-01-08T04:33:55.336Z,7.90
2023-01-08T04:36:43.422Z,7.90
2023-01-08T04:39:31.586Z,7.80
2023-01-08T04:42:19.724Z,7.90
2023-01-08T04:45:10.503Z,7.90
2023-01-08T04:47:59.125Z,8.00
2023-01-08T04:50:47.219Z,8.00
2023-01-08T04:53:36.824Z,8.10
2023-01-08T04:56:24.970Z,8.10
2023-01-08T04:59:13.169Z,8.20
2023-01-08T05:02:02.742Z,8.20
2023-01-08T05:04:50.871Z,8.30
2023-01-08T05:07:38.976Z,8.30
2023-01-08T05:10:27.091Z,8.30
2023-01-08T05:13:15.206Z,8.30
2023-01-08T05:16:03.376Z,8.40
2023-01-08T05:18:53.398Z,8.40
2023-01-08T05:21:41.507Z,8.50
2023-01-08T05:24:29.597Z,8.50
2023-01-08T05:27:17.834Z,8.60
2023-01-08T05:30:07.365Z,8.60
2023-01-08T05:32:55.527Z,8.70
2023-01-08T05:35:44.983Z,8.80
2023-01-08T05:38:33.114Z,8.90
2023-01-08T05:41:21.248Z,8.90
2023-01-08T05:44:10.550Z,9.00
2023-01-08T05:46:58.905Z,9.00
2023-01-08T05:49:46.995Z,9.00
2023-01-08T05:52:36.433Z,8.90
2023-01-08T05:55:24.554Z,8.90
2023-01-08T05:58:13.003Z,8.80
2023-01-08T06:01:06.267Z,8.80
2023-01-08T06:03:56.616Z,8.90
2023-01-08T06:06:44.801Z,8.80
2023-01-08T06:09:34.281Z,8.80
2023-01-08T06:12:22.369Z,8.70
2023-01-08T06:15:12.674Z,8.60
2023-01-08T06:18:03.572Z,8.60
2023-01-08T06:20:51.750Z,8.60
2023-01-08T06:23:39.915Z,8.60
2023-01-08T06:26:29.327Z,8.70
2023-01-08T06:29:17.432Z,8.60
2023-01-08T06:32:05.963Z,8.70
2023-01-08T06:34:54.109Z,8.70
2023-01-08T06:37:42.194Z,8.70
2023-01-08T06:40:30.464Z,8.70
2023-01-08T06:43:23.926Z,8.70
2023-01-08T06:46:12.214Z,8.70
2023-01-08T06:49:00.387Z,8.70
2023-01-08T06:51:48.459Z,8.70
2023-01-08T06:54:36.583Z,8.70
2023-01-08T06:57:24.699Z,8.70
2023-01-08T07:00:15.520Z,8.70
2023-01-08T07:03:03.764Z,8.70
2023-01-08T07:05:52.082Z,8.70
2023-01-08T07:08:40.151Z,8.60
2023-01-08T07:11:28.248Z,8.60
2023-01-08T07:14:16.422Z,8.50
2023-01-08T07:17:05.848Z,8.50
2023-01-08T07:19:53.962Z,8.50
2023-01-08T07:22:42.509Z,8.60
2023-01-08T07:25:30.799Z,8.60
2023-01-08T07:28:18.921Z,8.60
2023-01-08T07:31:07.831Z,8.60
2023-01-08T07:33:57.328Z,8.50
2023-01-08T07:36:45.421Z,8.60
2023-01-08T07:39:34.129Z,8.60
2023-01-08T07:42:22.238Z,8.50
2023-01-08T07:45:10.973Z,8.60
2023-01-08T07:47:59.545Z,8.60
2023-01-08T07:50:49.005Z,8.60
2023-01-08T07:53:38.330Z,8.50
2023-01-08T07:56:26.492Z,8.50
2023-01-08T07:59:14.565Z,8.40
2023-01-08T08:02:03.032Z,8.40
2023-01-08T08:04:51.296Z,8.40
2023-01-08T08:07:40.761Z,8.40
2023-01-08T08:10:28.947Z,8.40
2023-01-08T08:13:17.210Z,8.30
2023-01-08T08:16:06.416Z,8.30
2023-01-08T08:18:54.561Z,8.30
2023-01-08T08:21:42.699Z,8.40
2023-01-08T08:24:32.130Z,8.40
2023-01-08T08:27:20.221Z,8.40
2023-01-08T08:30:09.919Z,8.30
2023-01-08T08:33:00.204Z,8.30
2023-01-08T08:35:50.303Z,8.30
2023-01-08T08:38:38.803Z,8.30
2023-01-08T08:41:28.290Z,8.20
2023-01-08T08:44:16.379Z,8.20
2023-01-08T08:47:08.163Z,8.20
2023-01-08T08:49:56.280Z,8.20
2023-01-08T08:52:44.888Z,8.30
2023-01-08T08:55:33.787Z,8.30
2023-01-08T08:58:23.257Z,8.30
2023-01-08T09:01:11.398Z,8.40
2023-01-08T09:03:59.498Z,8.40
2023-01-08T09:06:47.967Z,8.40
2023-01-08T09:09:36.140Z,8.50
2023-01-08T09:12:24.275Z,8.50
2023-01-08T09:15:14.062Z,8.60
2023-01-08T09:18:02.210Z,8.60
2023-01-08T09:20:50.300Z,8.70
2023-01-08T09:23:39.113Z,8.70
2023-01-08T09:26:28.650Z,8.80
2023-01-08T09:29:16.719Z,8.90
2023-01-08T09:32:08.677Z,8.90
2023-01-08T09:34:56.771Z,9.00
2023-01-08T09:37:44.871Z,9.00
2023-01-08T09:40:36.485Z,9.10
2023-01-08T09:43:27.201Z,9.10
2023-01-08T09:46:17.117Z,9.20
2023-01-08T09:49:09.049Z,9.20
2023-01-08T09:51:57.284Z,9.20
2023-01-08T09:54:45.448Z,9.30
2023-01-08T09:57:34.508Z,9.30
2023-01-08T10:00:27.654Z,9.30
2023-01-08T10:03:15.802Z,9.40
2023-01-08T10:06:10.135Z,9.40
2023-01-08T10:08:58.831Z,9.40
2023-01-08T10:11:49.276Z,9.40
2023-01-08T10:14:43.009Z,9.40
2023-01-08T10:17:39.301Z,9.40
2023-01-08T10:20:28.623Z,9.40
2023-01-08T10:23:19.942Z,9.40
2023-01-08T10:26:08.032Z,9.40
2023-01-08T10:29:12.340Z,9.40
2023-01-08T10:32:05.561Z,9.40
2023-01-08T10:34:56.792Z,9.50
2023-01-08T10:37:47.111Z,9.50
2023-01-08T10:40:42.147Z,9.60
2023-01-08T10:43:33.282Z,9.60
2023-01-08T10:46:23.869Z,9.70
2023-01-08T10:49:18.050Z,9.70
2023-01-08T10:52:06.820Z,9.70
2023-01-08T10:54:55.391Z,9.70
2023-01-08T10:57:54.633Z,9.70
2023-01-08T11:00:42.969Z,9.70
2023-01-08T11:03:33.553Z,9.60
2023-01-08T11:06:23.606Z,9.60
2023-01-08T11:09:22.921Z,9.60
2023-01-08T11:12:31.531Z,9.50
2023-01-08T11:15:30.991Z,9.50
2023-01-08T11:18:21.234Z,9.50
2023-01-08T11:21:11.025Z,9.50
2023-01-08T11:24:13.290Z,9.40
2023-01-08T11:27:07.151Z,9.40
2023-01-08T11:30:01.529Z,9.40
2023-01-08T11:32:56.918Z,9.40
2023-01-08T11:35:50.742Z,9.40
2023-01-08T11:38:38.839Z,9.40
2023-01-08T11:41:43.127Z,9.40
2023-01-08T11:44:43.568Z,9.40
2023-01-08T11:47:50.784Z,9.40
2023-01-08T11:50:49.830Z,9.40
2023-01-08T11:53:43.409Z,9.40
2023-01-08T11:56:44.568Z,9.40
2023-01-08T11:59:36.383Z,9.40
2023-01-08T12:02:41.598Z,9.50
2023-01-08T12:05:33.513Z,9.50
2023-01-08T12:08:30.287Z,9.60
2023-01-08T12:11:26.165Z,9.50
2023-01-08T12:14:36.581Z,9.50
2023-01-08T12:17:46.977Z,9.50
2023-01-08T12:20:38.981Z,9.50
2023-01-08T12:23:46.474Z,9.60
2023-01-08T12:26:43.323Z,9.60
2023-01-08T12:29:45.134Z,9.60
2023-01-08T12:32:37.659Z,9.60
2023-01-08T12:35:29.882Z,9.60
2023-01-08T12:38:22.227Z,9.60
2023-01-08T12:41:13.938Z,9.60
2023-01-08T12:44:04.519Z,9.60
2023-01-08T12:46:56.410Z,9.60
2023-01-08T12:49:52.404Z,9.50
2023-01-08T12:52:46.366Z,9.60
2023-01-08T12:55:43.431Z,9.50
2023-01-08T12:58:49.668Z,9.60
2023-01-08T13:01:46.392Z,9.60
2023-01-08T13:04:42.249Z,9.60
2023-01-08T13:07:39.242Z,9.60
2023-01-08T13:10:36.093Z,9.70
2023-01-08T13:13:29.004Z,9.70
2023-01-08T13:16:24.438Z,9.60
2023-01-08T13:19:25.832Z,9.70
2023-01-08T13:22:27.382Z,9.70
2023-01-08T13:25:33.582Z,9.70
2023-01-08T13:28:29.660Z,9.70
2023-01-08T13:31:29.080Z,9.70
2023-01-08T13:34:23.576Z,9.70
2023-01-08T13:37:27.094Z,9.70
2023-01-08T13:40:38.919Z,9.70
2023-01-08T13:43:29.759Z,9.70
2023-01-08T13:46:19.996Z,9.70
2023-01-08T13:49:11.433Z,9.70
2023-01-08T13:51:59.589Z,9.60
2023-01-08T13:54:48.889Z,9.70
2023-01-08T13:57:41.188Z,9.70
2023-01-08T14:00:32.459Z,9.60
2023-01-08T14:03:23.915Z,9.60
2023-01-08T14:06:18.885Z,9.70
2023-01-08T14:09:06.973Z,9.70
2023-01-08T14:11:56.503Z,9.70
2023-01-08T14:14:49.522Z,9.70
2023-01-08T14:17:37.936Z,9.70
2023-01-08T14:20:32.389Z,9.70
2023-01-08T14:23:25.789Z,9.80
2023-01-08T14:26:20.259Z,9.80
2023-01-08T14:29:15.752Z,9.70
2023-01-08T14:32:04.128Z,9.80
2023-01-08T14:34:54.093Z,10.10
2023-01-08T14:37:42.240Z,10.10
2023-01-08T14:40:35.221Z,10.00
2023-01-08T14:43:23.334Z,10.00
2023-01-08T14:46:20.353Z,10.00
2023-01-08T14:49:19.301Z,10.00
2023-01-08T14:52:12.963Z,9.80
2023-01-08T14:55:03.226Z,9.80
2023-01-08T14:57:54.795Z,9.70
2023-01-08T15:00:43.419Z,9.60
2023-01-08T15:03:35.558Z,9.60
2023-01-08T15:06:29.258Z,9.50
2023-01-08T15:09:23.190Z,9.50
2023-01-08T15:12:25.273Z,9.40
2023-01-08T15:15:24.347Z,9.40
2023-01-08T15:18:13.830Z,9.30
2023-01-08T15:21:02.061Z,9.30
2023-01-08T15:23:52.578Z,9.20
2023-01-08T15:26:43.549Z,9.20
2023-01-08T15:29:33.950Z,9.20
2023-01-08T15:32:24.717Z,9.20
2023-01-08T15:35:16.332Z,9.20
2023-01-08T15:38:04.457Z,9.20
2023-01-08T15:40:54.155Z,9.20
2023-01-08T15:43:42.989Z,9.20
2023-01-08T15:46:31.087Z,9.20
2023-01-08T15:49:20.641Z,9.10
2023-01-08T15:52:10.463Z,9.10
2023-01-08T15:54:59.091Z,9.10
2023-01-08T15:57:47.307Z,9.10
2023-01-08T16:00:35.436Z,9.00
2023-01-08T16:03:25.439Z,9.00
2023-01-08T16:06:14.893Z,9.00
2023-01-08T16:09:03.557Z,9.00
2023-01-08T16:11:52.471Z,9.00
2023-01-08T16:14:40.682Z,9.10
2023-01-08T16:17:30.615Z,9.10
2023-01-08T16:20:19.038Z,9.10
2023-01-08T16:23:08.630Z,9.10
2023-01-08T16:25:56.747Z,9.10
2023-01-08T16:28:44.848Z,9.10
2023-01-08T16:31:33.034Z,9.10
2023-01-08T16:34:21.607Z,9.10
2023-01-08T16:37:10.562Z,9.10
2023-01-08T16:40:00.168Z,9.10
2023-01-08T16:42:48.258Z,9.10
2023-01-08T16:45:41.879Z,9.20
2023-01-08T16:48:31.103Z,9.20
2023-01-08T16:51:21.171Z,9.20
2023-01-08T16:54:12.950Z,9.20
2023-01-08T16:57:02.389Z,9.20
2023-01-08T16:59:50.507Z,9.10
2023-01-08T17:02:38.991Z,9.00
2023-01-08T17:05:27.062Z,9.00
2023-01-08T17:08:16.857Z,8.90
2023-01-08T17:11:08.788Z,8.90
2023-01-08T17:13:58.230Z,8.90
2023-01-08T17:16:47.497Z,8.90
2023-01-08T17:19:35.659Z,8.80
2023-01-08T17:22:23.921Z,8.80
2023-01-08T17:25:12.152Z,8.80
2023-01-08T17:28:01.070Z,8.80
2023-01-08T17:30:50.509Z,8.70
2023-01-08T17:33:39.407Z,8.70
2023-01-08T17:36:28.036Z,8.70
2023-01-08T17:39:16.180Z,8.70
2023-01-08T17:42:21.838Z,8.70
2023-01-08T17:45:11.299Z,8.60
2023-01-08T17:48:00.775Z,8.50
2023-01-08T17:50:48.945Z,8.50
2023-01-08T17:53:37.044Z,8.40
2023-01-08T17:56:25.354Z,8.40
2023-01-08T17:59:14.623Z,8.30
2023-01-08T18:02:03.809Z,8.30
2023-01-08T18:04:53.347Z,8.30
2023-01-08T18:07:41.521Z,8.30
2023-01-08T18:10:29.827Z,8.30
2023-01-08T18:13:17.916Z,8.30
2023-01-08T18:16:08.006Z,8.30
2023-01-08T18:18:57.054Z,8.30
2023-01-08T18:21:47.546Z,8.30
2023-01-08T18:24:36.005Z,8.30
2023-01-08T18:27:24.111Z,8.40
2023-01-08T18:30:13.535Z,8.40
2023-01-08T18:33:01.951Z,8.40
2023-01-08T18:35:50.676Z,8.40
2023-01-08T18:38:42.717Z,8.40
2023-01-08T18:41:57.107Z,8.30
2023-01-08T18:44:45.187Z,8.20
2023-01-08T18:47:33.393Z,8.20
2023-01-08T18:50:23.035Z,8.20
2023-01-08T18:53:11.297Z,8.20
2023-01-08T18:56:01.304Z,8.30
2023-01-08T18:58:49.393Z,8.30
2023-01-08T19:01:37.601Z,8.30
2023-01-08T19:04:25.967Z,8.30
2023-01-08T19:07:14.346Z,8.30
2023-01-08T19:10:02.652Z,8.30
2023-01-08T19:12:52.102Z,8.30
2023-01-08T19:15:40.478Z,8.30
2023-01-08T19:18:28.660Z,8.30
2023-01-08T19:21:18.853Z,8.30
2023-01-08T19:24:07.689Z,8.20
2023-01-08T19:26:55.807Z,8.20
2023-01-08T19:29:45.215Z,8.20
2023-01-08T19:32:33.333Z,8.10
2023-01-08T19:35:21.414Z,8.10
2023-01-08T19:38:09.606Z,8.10
2023-01-08T19:41:00.101Z,8.10
2023-01-08T19:43:47.276Z,8.00
2023-01-08T19:46:37.347Z,8.00
2023-01-08T19:49:25.652Z,8.00
2023-01-08T19:52:14.107Z,7.90
2023-01-08T19:55:02.185Z,7.90
2023-01-08T19:57:50.585Z,7.90
2023-01-08T20:00:39.522Z,7.90
2023-01-08T20:03:29.187Z,7.90
2023-01-08T20:06:19.844Z,7.80
2023-01-08T20:09:09.047Z,7.70
2023-01-08T20:11:57.599Z,7.60
2023-01-08T20:14:45.719Z,7.60
2023-01-08T20:17:34.250Z,7.50
2023-01-08T20:20:23.906Z,7.40
2023-01-08T20:23:14.269Z,7.40
2023-01-08T20:26:03.275Z,7.40
2023-01-08T20:28:51.408Z,7.30
2023-01-08T20:31:40.208Z,7.30
2023-01-08T20:34:28.610Z,7.40
2023-01-08T20:37:18.063Z,7.40
2023-01-08T20:40:07.187Z,7.40
2023-01-08T20:42:55.337Z,7.40
2023-01-08T20:45:43.798Z,7.40
2023-01-08T20:48:37.036Z,7.50
2023-01-08T20:51:28.049Z,7.50
2023-01-08T20:54:18.013Z,7.50
2023-01-08T20:57:06.155Z,7.50
2023-01-08T20:59:54.279Z,7.50
2023-01-08T21:02:43.638Z,7.50
2023-01-08T21:05:31.781Z,7.50
2023-01-08T21:08:19.909Z,7.40
2023-01-08T21:11:10.859Z,7.40
2023-01-08T21:13:59.560Z,7.40
2023-01-08T21:16:47.696Z,7.40
2023-01-08T21:19:35.834Z,7.40
2023-01-08T21:22:24.066Z,7.40
2023-01-08T21:25:12.681Z,7.40
2023-01-08T21:28:02.180Z,7.30
2023-01-08T21:30:50.263Z,7.30
2023-01-08T21:33:39.141Z,7.20
2023-01-08T21:36:31.353Z,7.20
2023-01-08T21:39:19.561Z,7.20
2023-01-08T21:42:25.353Z,7.10
2023-01-08T21:45:27.679Z,7.10
2023-01-08T21:48:15.840Z,7.00
2023-01-08T21:51:04.021Z,6.90
2023-01-08T21:53:51.180Z,6.90
2023-01-08T21:56:40.088Z,6.90
2023-01-08T21:59:28.173Z,6.90
2023-01-08T22:02:19.523Z,6.80
2023-01-08T22:05:08.335Z,6.80
2023-01-08T22:07:56.433Z,6.80
2023-01-08T22:10:44.521Z,6.80
2023-01-08T22:13:32.585Z,6.80
2023-01-08T22:16:20.704Z,6.80
2023-01-08T22:19:11.250Z,6.80
2023-01-08T22:21:59.393Z,6.70
2023-01-08T22:24:47.450Z,6.70
2023-01-08T22:27:35.569Z,6.70
2023-01-08T22:30:24.129Z,6.70
2023-01-08T22:33:12.278Z,6.70
2023-01-08T22:36:03.247Z,6.70
2023-01-08T22:38:51.418Z,6.70
2023-01-08T22:41:39.870Z,6.60
2023-01-08T22:44:28.009Z,6.60
2023-01-08T22:47:16.060Z,6.50
2023-01-08T22:50:04.704Z,6.50
2023-01-08T22:52:54.105Z,6.50
2023-01-08T22:55:42.317Z,6.50
2023-01-08T22:58:30.431Z,6.50
2023-01-08T23:01:20.307Z,6.50
2023-01-08T23:04:08.558Z,6.40
2023-01-08T23:06:56.739Z,6.30
2023-01-08T23:09:46.548Z,6.30
2023-01-08T23:12:34.951Z,6.30
2023-01-08T23:15:23.858Z,6.30
2023-01-08T23:18:11.951Z,6.20
2023-01-08T23:21:04.050Z,6.20
2023-01-08T23:23:52.535Z,6.20
2023-01-08T23:26:42.986Z,6.20
2023-01-08T23:29:32.058Z,6.20
2023-01-08T23:32:20.122Z,6.30
2023-01-08T23:35:08.764Z,6.30
2023-01-08T23:37:56.848Z,6.30
2023-01-08T23:40:45.402Z,6.20
2023-01-08T23:43:34.822Z,6.20
2023-01-08T23:46:22.927Z,6.20
2023-01-08T23:49:11.169Z,6.20
2023-01-08T23:51:59.373Z,6.20
2023-01-08T23:54:47.475Z,6.20
2023-01-08T23:57:35.541Z,6.20
